createdAt,value
2019-02-22T00:00:25.659Z,87.80
2019-02-22T00:02:46.498Z,88.00
2019-02-22T00:05:06.793Z,88.00
2019-02-22T00:07:27.045Z,87.30
2019-02-22T00:09:49.745Z,87.20
2019-02-22T00:12:09.297Z,88.10
2019-02-22T00:14:29.580Z,88.00
2019-02-22T00:16:49.959Z,87.80
2019-02-22T00:19:10.331Z,86.90
2019-02-22T00:21:30.663Z,86.40
2019-02-22T00:23:50.923Z,86.10
2019-02-22T00:26:11.328Z,86.50
2019-02-22T00:28:31.661Z,85.90
2019-02-22T00:30:51.917Z,87.70
2019-02-22T00:33:12.301Z,87.80
2019-02-22T00:35:32.764Z,87.40
2019-02-22T00:37:53.453Z,86.70
2019-02-22T00:40:13.832Z,87.40
2019-02-22T00:42:34.104Z,87.80
2019-02-22T00:44:54.475Z,87.70
2019-02-22T00:47:14.775Z,86.70
2019-02-22T00:49:35.048Z,86.70
2019-02-22T00:51:56.794Z,86.50
2019-02-22T00:54:17.236Z,87.30
2019-02-22T00:56:37.610Z,88.00
2019-02-22T00:58:57.954Z,87.70
2019-02-22T01:01:18.349Z,87.60
2019-02-22T01:03:38.717Z,87.10
2019-02-22T01:05:58.990Z,86.50
2019-02-22T01:08:19.246Z,86.80
2019-02-22T01:10:39.565Z,86.70
2019-02-22T01:12:59.953Z,86.30
2019-02-22T01:15:20.314Z,86.20
2019-02-22T01:17:40.691Z,86.30
2019-02-22T01:20:01.110Z,86.40
2019-02-22T01:22:22.556Z,86.20
2019-02-22T01:24:42.910Z,86.20
2019-02-22T01:27:03.176Z,86.40
2019-02-22T01:29:23.548Z,87.00
2019-02-22T01:31:44.030Z,87.80
2019-02-22T01:34:04.368Z,87.70
2019-02-22T01:36:25.596Z,89.00
2019-02-22T01:38:45.875Z,89.70
2019-02-22T01:41:06.239Z,90.20
2019-02-22T01:43:26.553Z,90.50
2019-02-22T01:45:47.407Z,91.00
2019-02-22T01:48:07.863Z,91.00
2019-02-22T01:50:28.144Z,90.70
2019-02-22T01:52:48.402Z,90.50
2019-02-22T01:55:08.681Z,90.50
2019-02-22T01:57:28.963Z,90.60
2019-02-22T01:59:50.223Z,90.50
2019-02-22T02:02:10.514Z,90.20
2019-02-22T02:04:30.850Z,90.30
2019-02-22T02:06:51.408Z,90.30
2019-02-22T02:09:11.739Z,90.00
2019-02-22T02:11:32.002Z,90.00
2019-02-22T02:13:52.283Z,90.10
2019-02-22T02:16:12.720Z,90.10
2019-02-22T02:18:33.940Z,90.00
2019-02-22T02:20:54.256Z,90.00
2019-02-22T02:23:14.588Z,88.90
2019-02-22T02:25:34.839Z,89.60
2019-02-22T02:27:55.099Z,89.00
2019-02-22T02:30:15.391Z,88.20
2019-02-22T02:32:35.721Z,89.10
2019-02-22T02:34:56.078Z,88.80
2019-02-22T02:37:16.623Z,88.80
2019-02-22T02:39:36.889Z,87.40
2019-02-22T02:41:57.315Z,86.50
2019-02-22T02:44:17.640Z,87.00
2019-02-22T02:46:37.899Z,88.60
2019-02-22T02:48:58.347Z,87.90
2019-02-22T02:51:18.662Z,88.10
2019-02-22T02:53:38.923Z,88.90
2019-02-22T02:55:59.403Z,89.00
2019-02-22T02:58:19.655Z,88.50
2019-02-22T03:00:40.003Z,88.00
2019-02-22T03:03:00.417Z,88.40
2019-02-22T03:05:22.378Z,88.20
2019-02-22T03:07:43.875Z,86.90
2019-02-22T03:10:04.991Z,86.00
2019-02-22T03:12:26.903Z,85.60
2019-02-22T03:14:47.162Z,85.00
2019-02-22T03:17:07.422Z,85.00
2019-02-22T03:19:27.709Z,84.60
2019-02-22T03:21:48.026Z,83.80
2019-02-22T03:24:08.287Z,83.00
2019-02-22T03:26:28.626Z,82.80
2019-02-22T03:28:48.924Z,82.20
2019-02-22T03:31:09.193Z,82.00
2019-02-22T03:33:29.486Z,83.80
2019-02-22T03:35:49.818Z,84.70
2019-02-22T03:38:10.157Z,85.30
2019-02-22T03:40:30.508Z,85.80
2019-02-22T03:42:50.766Z,84.60
2019-02-22T03:45:11.060Z,84.20
2019-02-22T03:47:31.315Z,83.90
2019-02-22T03:49:51.627Z,84.10
2019-02-22T03:52:22.336Z,85.50
2019-02-22T03:54:42.591Z,85.70
2019-02-22T03:57:02.880Z,85.00
2019-02-22T03:59:23.175Z,85.30
2019-02-22T04:01:43.437Z,86.90
2019-02-22T04:04:04.048Z,87.00
2019-02-22T04:06:24.400Z,88.10
2019-02-22T04:08:44.743Z,89.60
2019-02-22T04:11:05.075Z,90.30
2019-02-22T04:13:25.512Z,90.20
2019-02-22T04:15:45.846Z,89.90
2019-02-22T04:18:07.762Z,90.00
2019-02-22T04:20:28.030Z,90.30
2019-02-22T04:22:48.319Z,90.40
2019-02-22T04:25:08.585Z,90.50
2019-02-22T04:27:28.964Z,90.50
2019-02-22T04:29:49.340Z,90.30
2019-02-22T04:32:09.627Z,89.80
2019-02-22T04:34:30.018Z,89.50
2019-02-22T04:36:50.396Z,90.20
2019-02-22T04:39:10.656Z,89.40
2019-02-22T04:41:30.920Z,88.50
2019-02-22T04:43:51.282Z,89.20
2019-02-22T04:46:11.551Z,88.30
2019-02-22T04:48:31.832Z,88.20
2019-02-22T04:50:52.148Z,87.90
2019-02-22T04:53:12.456Z,89.40
2019-02-22T04:55:32.794Z,89.20
2019-02-22T04:57:53.149Z,89.90
2019-02-22T05:00:13.496Z,89.50
2019-02-22T05:02:33.909Z,90.10
2019-02-22T05:04:54.228Z,90.40
2019-02-22T05:07:14.499Z,89.40
2019-02-22T05:09:34.784Z,89.70
2019-02-22T05:11:55.066Z,90.00
2019-02-22T05:14:15.381Z,90.20
2019-02-22T05:16:35.753Z,90.30
2019-02-22T05:18:56.088Z,89.90
2019-02-22T05:21:16.512Z,89.10
2019-02-22T05:23:36.897Z,89.10
2019-02-22T05:25:57.438Z,89.60
2019-02-22T05:28:17.942Z,89.20
2019-02-22T05:30:38.585Z,90.00
2019-02-22T05:32:58.925Z,89.00
2019-02-22T05:35:19.247Z,87.60
2019-02-22T05:37:39.518Z,85.30
2019-02-22T05:39:59.817Z,83.00
2019-02-22T05:42:23.254Z,80.20
2019-02-22T05:44:42.098Z,78.10
2019-02-22T05:47:02.438Z,78.30
2019-02-22T05:49:22.769Z,77.40
2019-02-22T05:51:43.008Z,78.10
2019-02-22T05:54:03.274Z,79.40
2019-02-22T05:56:23.527Z,78.70
2019-02-22T05:58:43.862Z,78.80
2019-02-22T06:01:06.712Z,79.10
2019-02-22T06:03:26.119Z,80.00
2019-02-22T06:05:46.459Z,80.40
2019-02-22T06:08:08.864Z,81.10
2019-02-22T06:10:28.674Z,81.50
2019-02-22T06:12:48.999Z,83.00
2019-02-22T06:15:09.248Z,83.20
2019-02-22T06:17:29.473Z,83.10
2019-02-22T06:19:49.822Z,83.50
2019-02-22T06:22:10.097Z,84.10
2019-02-22T06:24:30.442Z,84.70
2019-02-22T06:26:50.760Z,84.30
2019-02-22T06:29:11.035Z,84.30
2019-02-22T06:31:31.399Z,84.10
2019-02-22T06:33:51.659Z,83.20
2019-02-22T06:36:11.920Z,83.20
2019-02-22T06:38:32.181Z,83.20
2019-02-22T06:40:52.510Z,82.80
2019-02-22T06:43:12.767Z,84.00
2019-02-22T06:45:33.019Z,83.80
2019-02-22T06:47:53.359Z,84.90
2019-02-22T06:50:13.679Z,84.90
2019-02-22T06:52:34.007Z,84.70
2019-02-22T06:54:54.248Z,84.70
2019-02-22T06:57:14.580Z,85.30
2019-02-22T06:59:34.840Z,85.30
2019-02-22T07:01:55.086Z,86.10
2019-02-22T07:04:15.411Z,85.60
2019-02-22T07:06:35.672Z,85.70
2019-02-22T07:08:55.933Z,85.60
2019-02-22T07:11:20.465Z,86.20
2019-02-22T07:13:40.866Z,84.40
2019-02-22T07:16:01.156Z,85.80
2019-02-22T07:18:21.469Z,86.20
2019-02-22T07:20:41.694Z,86.70
2019-02-22T07:23:01.952Z,85.90
2019-02-22T07:25:23.155Z,84.30
2019-02-22T07:27:43.422Z,84.70
2019-02-22T07:30:04.660Z,83.60
2019-02-22T07:32:25.099Z,81.60
2019-02-22T07:34:45.375Z,80.40
2019-02-22T07:37:05.645Z,80.10
2019-02-22T07:39:28.116Z,79.30
2019-02-22T07:41:48.056Z,80.10
2019-02-22T07:44:08.316Z,79.80
2019-02-22T07:46:28.966Z,79.00
2019-02-22T07:48:49.392Z,78.70
2019-02-22T07:51:09.723Z,79.00
2019-02-22T07:53:30.050Z,79.40
2019-02-22T07:55:50.310Z,77.70
2019-02-22T07:58:10.728Z,77.30
2019-02-22T08:00:31.125Z,77.80
2019-02-22T08:02:51.436Z,77.10
2019-02-22T08:05:11.753Z,77.90
2019-02-22T08:07:33.230Z,77.60
2019-02-22T08:09:53.553Z,75.80
2019-02-22T08:12:13.862Z,75.80
2019-02-22T08:14:34.133Z,75.80
2019-02-22T08:16:54.442Z,76.40
2019-02-22T08:19:14.712Z,74.90
2019-02-22T08:21:35.058Z,75.20
2019-02-22T08:23:55.715Z,73.80
2019-02-22T08:26:16.162Z,74.60
2019-02-22T08:28:36.799Z,74.60
2019-02-22T08:30:57.270Z,73.90
2019-02-22T08:33:17.685Z,74.00
2019-02-22T08:35:38.082Z,73.30
2019-02-22T08:37:58.514Z,72.50
2019-02-22T08:40:18.964Z,71.90
2019-02-22T08:42:39.440Z,71.80
2019-02-22T08:45:00.970Z,70.40
2019-02-22T08:47:21.602Z,68.30
2019-02-22T08:49:42.315Z,65.80
2019-02-22T08:52:02.287Z,64.50
2019-02-22T08:54:22.839Z,64.60
2019-02-22T08:56:44.214Z,64.90
2019-02-22T08:59:04.576Z,66.50
2019-02-22T09:01:24.851Z,67.90
2019-02-22T09:03:50.779Z,68.10
2019-02-22T09:06:07.164Z,67.90
2019-02-22T09:08:27.414Z,67.90
2019-02-22T09:10:57.536Z,68.60
2019-02-22T09:13:10.753Z,67.90
2019-02-22T09:15:31.130Z,67.80
2019-02-22T09:17:51.385Z,67.90
2019-02-22T09:20:12.895Z,67.00
2019-02-22T09:22:33.274Z,66.80
2019-02-22T09:24:53.588Z,65.10
2019-02-22T09:27:13.862Z,61.70
2019-02-22T09:29:34.133Z,59.30
2019-02-22T09:31:54.155Z,57.70
2019-02-22T09:34:14.412Z,54.50
2019-02-22T09:36:34.439Z,48.50
2019-02-22T09:38:54.487Z,50.00
2019-02-22T09:41:14.482Z,48.30
2019-02-22T09:43:34.500Z,46.00
2019-02-22T09:45:54.551Z,42.50
2019-02-22T09:48:14.695Z,40.70
2019-02-22T09:50:34.730Z,43.50
2019-02-22T09:52:54.784Z,42.80
2019-02-22T09:55:14.777Z,37.40
2019-02-22T09:57:34.859Z,36.30
2019-02-22T09:59:54.964Z,37.00
2019-02-22T10:02:14.971Z,37.50
2019-02-22T10:04:34.998Z,40.10
2019-02-22T10:06:54.953Z,41.20
2019-02-22T10:09:15.017Z,44.30
2019-02-22T10:11:34.979Z,42.50
2019-02-22T10:14:06.056Z,42.10
2019-02-22T10:16:16.728Z,41.50
2019-02-22T10:18:36.791Z,38.60
2019-02-22T10:20:57.132Z,39.80
2019-02-22T10:23:17.164Z,43.00
2019-02-22T10:25:37.247Z,44.90
2019-02-22T10:27:57.433Z,46.60
2019-02-22T10:30:18.496Z,49.90
2019-02-22T10:32:38.555Z,51.20
2019-02-22T10:34:58.593Z,51.50
2019-02-22T10:37:18.624Z,51.30
2019-02-22T10:39:38.659Z,52.00
2019-02-22T10:41:58.705Z,51.10
2019-02-22T10:44:18.988Z,51.60
2019-02-22T10:46:39.010Z,51.80
2019-02-22T10:48:59.345Z,52.40
2019-02-22T10:51:19.395Z,52.30
2019-02-22T10:53:39.432Z,52.60
2019-02-22T10:55:59.492Z,53.20
2019-02-22T10:58:19.530Z,50.80
2019-02-22T11:00:39.496Z,47.00
2019-02-22T11:02:59.477Z,40.70
2019-02-22T11:05:19.431Z,37.60
2019-02-22T11:07:39.420Z,37.50
2019-02-22T11:09:59.454Z,35.10
2019-02-22T11:12:19.438Z,34.20
2019-02-22T11:14:39.531Z,34.60
2019-02-22T11:16:59.559Z,35.80
2019-02-22T11:19:19.540Z,37.40
2019-02-22T11:21:39.587Z,33.90
2019-02-22T11:23:59.559Z,30.00
2019-02-22T11:26:19.518Z,31.70
2019-02-22T11:28:39.570Z,35.90
2019-02-22T11:30:59.602Z,36.20
2019-02-22T11:33:19.817Z,31.60
2019-02-22T11:35:39.833Z,29.80
2019-02-22T11:37:59.804Z,30.60
2019-02-22T11:40:19.939Z,32.20
2019-02-22T11:42:39.908Z,32.00
2019-02-22T11:45:01.226Z,34.10
2019-02-22T11:47:22.712Z,32.10
2019-02-22T11:49:42.695Z,33.30
2019-02-22T11:52:02.687Z,39.30
2019-02-22T11:54:22.753Z,42.00
2019-02-22T11:56:42.830Z,37.70
2019-02-22T11:59:02.862Z,32.90
2019-02-22T12:01:23.809Z,29.10
2019-02-22T12:03:43.906Z,28.50
2019-02-22T12:06:03.888Z,31.30
2019-02-22T12:08:24.923Z,27.80
2019-02-22T12:10:44.895Z,28.40
2019-02-22T12:13:06.109Z,32.20
2019-02-22T12:15:26.147Z,36.30
2019-02-22T12:17:47.137Z,40.90
2019-02-22T12:20:09.160Z,42.10
2019-02-22T12:22:29.871Z,44.20
2019-02-22T12:24:50.839Z,46.50
2019-02-22T12:27:14.009Z,47.20
2019-02-22T12:29:32.527Z,48.50
2019-02-22T12:31:53.564Z,49.40
2019-02-22T12:34:13.512Z,49.30
2019-02-22T12:36:33.775Z,45.20
2019-02-22T12:38:53.469Z,46.50
2019-02-22T12:41:13.499Z,47.90
2019-02-22T12:43:34.477Z,49.40
2019-02-22T12:45:54.523Z,49.70
2019-02-22T12:48:15.313Z,45.10
2019-02-22T12:50:35.551Z,40.70
2019-02-22T12:52:56.316Z,35.60
2019-02-22T12:55:16.461Z,37.30
2019-02-22T12:57:36.524Z,37.00
2019-02-22T12:59:56.549Z,39.20
2019-02-22T13:02:16.514Z,42.70
2019-02-22T13:04:36.666Z,37.30
2019-02-22T13:06:56.647Z,40.40
2019-02-22T13:09:16.600Z,44.60
2019-02-22T13:11:36.844Z,46.50
2019-02-22T13:13:56.799Z,47.90
2019-02-22T13:16:16.751Z,48.30
2019-02-22T13:18:36.752Z,47.50
2019-02-22T13:20:57.155Z,47.50
2019-02-22T13:23:17.422Z,48.10
2019-02-22T13:25:37.760Z,50.30
2019-02-22T13:27:58.011Z,50.70
2019-02-22T13:30:18.442Z,50.70
2019-02-22T13:32:38.142Z,52.10
2019-02-22T13:34:58.102Z,52.60
2019-02-22T13:37:17.860Z,52.70
2019-02-22T13:39:37.616Z,52.60
2019-02-22T13:41:57.330Z,53.30
2019-02-22T13:44:17.313Z,44.60
2019-02-22T13:46:37.590Z,36.60
2019-02-22T13:48:57.627Z,34.00
2019-02-22T13:51:17.752Z,33.70
2019-02-22T13:53:37.764Z,31.50
2019-02-22T13:55:57.796Z,33.00
2019-02-22T13:58:17.858Z,36.80
2019-02-22T14:00:38.848Z,43.40
2019-02-22T14:02:58.936Z,45.80
2019-02-22T14:05:18.959Z,48.00
2019-02-22T14:07:39.061Z,49.10
2019-02-22T14:09:59.042Z,49.30
2019-02-22T14:12:19.097Z,49.30
2019-02-22T14:14:39.576Z,51.50
2019-02-22T14:17:00.112Z,52.20
2019-02-22T14:19:20.353Z,54.70
2019-02-22T14:21:40.602Z,57.50
2019-02-22T14:24:00.877Z,59.20
2019-02-22T14:26:21.416Z,60.20
2019-02-22T14:28:41.774Z,60.00
2019-02-22T14:31:02.019Z,60.90
2019-02-22T14:33:22.417Z,58.80
2019-02-22T14:35:42.953Z,58.20
2019-02-22T14:38:03.249Z,58.70
2019-02-22T14:40:23.572Z,58.70
2019-02-22T14:42:45.762Z,59.20
2019-02-22T14:45:08.425Z,59.70
2019-02-22T14:47:28.629Z,60.20
2019-02-22T14:49:48.943Z,59.60
2019-02-22T14:52:09.201Z,59.20
2019-02-22T14:54:29.543Z,60.00
2019-02-22T14:56:49.791Z,60.20
2019-02-22T14:59:10.054Z,59.00
2019-02-22T15:01:30.399Z,58.60
2019-02-22T15:03:50.666Z,58.20
2019-02-22T15:06:10.944Z,57.60
2019-02-22T15:08:31.178Z,57.40
2019-02-22T15:10:51.420Z,57.20
2019-02-22T15:13:12.644Z,56.80
2019-02-22T15:16:00.118Z,57.10
2019-02-22T15:18:12.192Z,57.10
2019-02-22T15:20:32.421Z,56.00
2019-02-22T15:22:52.657Z,56.10
2019-02-22T15:25:14.872Z,56.20
2019-02-22T15:27:36.329Z,56.30
2019-02-22T15:29:56.811Z,56.10
2019-02-22T15:32:17.149Z,55.50
2019-02-22T15:34:37.416Z,56.50
2019-02-22T15:36:57.782Z,56.20
2019-02-22T15:39:18.071Z,56.70
2019-02-22T15:41:38.402Z,56.50
2019-02-22T15:43:58.752Z,56.40
2019-02-22T15:46:19.051Z,55.50
2019-02-22T15:48:39.394Z,55.20
2019-02-22T15:50:59.707Z,54.70
2019-02-22T15:53:19.985Z,55.30
2019-02-22T15:55:40.231Z,56.00
2019-02-22T15:58:00.581Z,56.10
2019-02-22T16:00:32.513Z,56.20
2019-02-22T16:02:52.782Z,55.90
2019-02-22T16:05:16.312Z,55.70
2019-02-22T16:07:44.372Z,55.70
2019-02-22T16:09:59.305Z,55.80
2019-02-22T16:12:19.572Z,55.60
2019-02-22T16:14:39.827Z,55.70
2019-02-22T16:17:02.252Z,55.70
2019-02-22T16:19:22.621Z,55.70
2019-02-22T16:21:42.888Z,56.00
2019-02-22T16:24:03.160Z,56.20
2019-02-22T16:26:25.064Z,56.50
2019-02-22T16:28:45.309Z,56.60
2019-02-22T16:31:05.639Z,57.00
2019-02-22T16:33:25.957Z,57.10
2019-02-22T16:35:46.299Z,58.00
2019-02-22T16:38:06.639Z,57.10
2019-02-22T16:40:26.960Z,56.70
2019-02-22T16:42:47.228Z,56.60
2019-02-22T16:45:12.326Z,56.70
2019-02-22T16:47:39.931Z,56.90
2019-02-22T16:49:54.590Z,56.80
2019-02-22T16:52:14.918Z,56.70
2019-02-22T16:54:35.163Z,56.90
2019-02-22T16:56:55.407Z,57.20
2019-02-22T16:59:15.671Z,57.20
2019-02-22T17:01:35.959Z,57.30
2019-02-22T17:03:56.269Z,57.30
2019-02-22T17:06:17.646Z,56.40
2019-02-22T17:08:37.937Z,56.10
2019-02-22T17:10:58.762Z,55.60
2019-02-22T17:13:19.281Z,55.60
2019-02-22T17:15:39.652Z,56.10
2019-02-22T17:18:01.366Z,56.40
2019-02-22T17:20:21.845Z,54.90
2019-02-22T17:22:42.145Z,55.10
2019-02-22T17:25:02.379Z,54.30
2019-02-22T17:27:22.725Z,54.40
2019-02-22T17:29:42.978Z,54.30
2019-02-22T17:32:03.322Z,54.40
2019-02-22T17:34:23.664Z,54.20
2019-02-22T17:36:44.078Z,53.60
2019-02-22T17:39:05.562Z,53.40
2019-02-22T17:41:26.853Z,53.90
2019-02-22T17:43:47.120Z,53.70
2019-02-22T17:46:07.463Z,54.00
2019-02-22T17:48:28.396Z,54.20
2019-02-22T17:50:48.770Z,54.30
2019-02-22T17:53:09.007Z,53.70
2019-02-22T17:55:29.387Z,53.10
2019-02-22T17:57:49.893Z,52.70
2019-02-22T18:00:14.012Z,52.30
2019-02-22T18:02:34.360Z,52.10
2019-02-22T18:04:54.794Z,52.30
2019-02-22T18:07:15.036Z,51.80
2019-02-22T18:09:36.370Z,51.30
2019-02-22T18:11:56.646Z,51.30
2019-02-22T18:14:16.970Z,51.80
2019-02-22T18:16:37.260Z,51.70
2019-02-22T18:18:57.527Z,51.60
2019-02-22T18:21:17.767Z,52.60
2019-02-22T18:23:38.113Z,51.40
2019-02-22T18:25:58.376Z,50.90
2019-02-22T18:28:18.699Z,50.40
2019-02-22T18:30:39.188Z,50.30
2019-02-22T18:32:59.428Z,50.80
2019-02-22T18:35:19.743Z,50.30
2019-02-22T18:37:40.099Z,50.60
2019-02-22T18:40:00.354Z,50.60
2019-02-22T18:42:20.602Z,49.70
2019-02-22T18:44:41.032Z,49.50
2019-02-22T18:47:01.349Z,49.90
2019-02-22T18:49:21.596Z,49.60
2019-02-22T18:51:41.871Z,49.90
2019-02-22T18:54:02.112Z,50.70
2019-02-22T18:56:22.366Z,49.60
2019-02-22T18:58:42.731Z,48.70
2019-02-22T19:01:03.047Z,48.40
2019-02-22T19:03:23.390Z,48.50
2019-02-22T19:05:43.639Z,49.60
2019-02-22T19:08:04.170Z,49.20
2019-02-22T19:10:24.521Z,49.30
2019-02-22T19:12:44.961Z,49.30
2019-02-22T19:15:07.601Z,48.60
2019-02-22T19:17:30.317Z,47.80
2019-02-22T19:19:49.592Z,46.70
2019-02-22T19:22:09.878Z,46.00
2019-02-22T19:24:30.349Z,45.40
2019-02-22T19:26:50.661Z,43.70
2019-02-22T19:29:11.008Z,43.70
2019-02-22T19:31:31.329Z,42.90
2019-02-22T19:33:51.644Z,42.80
2019-02-22T19:36:12.809Z,42.80
2019-02-22T19:38:33.059Z,43.80
2019-02-22T19:40:53.301Z,42.50
2019-02-22T19:43:13.721Z,41.10
2019-02-22T19:45:33.954Z,41.10
2019-02-22T19:47:54.244Z,40.40
2019-02-22T19:50:14.666Z,40.00
2019-02-22T19:52:35.042Z,42.10
2019-02-22T19:54:55.401Z,43.50
2019-02-22T19:57:15.757Z,43.10
2019-02-22T19:59:36.086Z,41.10
2019-02-22T20:01:56.369Z,41.10
2019-02-22T20:04:16.637Z,42.20
2019-02-22T20:06:36.887Z,43.90
2019-02-22T20:08:57.212Z,43.30
2019-02-22T20:11:17.500Z,44.30
2019-02-22T20:13:38.723Z,43.10
2019-02-22T20:16:00.046Z,43.00
2019-02-22T20:18:20.338Z,40.20
2019-02-22T20:20:40.682Z,39.50
2019-02-22T20:23:01.032Z,38.30
2019-02-22T20:25:21.373Z,37.10
2019-02-22T20:27:41.615Z,37.20
2019-02-22T20:30:01.933Z,38.00
2019-02-22T20:32:22.666Z,39.00
2019-02-22T20:34:42.935Z,40.00
2019-02-22T20:37:02.983Z,39.50
2019-02-22T20:39:23.516Z,38.70
2019-02-22T20:41:43.844Z,39.30
2019-02-22T20:44:04.232Z,39.20
2019-02-22T20:46:24.643Z,38.50
2019-02-22T20:48:45.033Z,38.30
2019-02-22T20:51:05.333Z,38.30
2019-02-22T20:53:26.555Z,38.20
2019-02-22T20:55:46.889Z,39.00
2019-02-22T20:58:07.224Z,39.60
2019-02-22T21:00:28.605Z,40.10
2019-02-22T21:02:48.867Z,39.80
2019-02-22T21:05:10.053Z,40.40
2019-02-22T21:07:30.376Z,40.90
2019-02-22T21:09:50.734Z,41.30
2019-02-22T21:12:11.084Z,42.20
2019-02-22T21:14:31.386Z,42.20
2019-02-22T21:16:51.728Z,42.60
2019-02-22T21:19:12.044Z,42.70
2019-02-22T21:21:32.349Z,43.00
2019-02-22T21:23:52.608Z,43.30
2019-02-22T21:26:13.110Z,43.60
2019-02-22T21:28:35.099Z,43.70
2019-02-22T21:30:55.445Z,43.80
2019-02-22T21:33:16.687Z,43.80
2019-02-22T21:35:37.013Z,43.70
2019-02-22T21:37:57.296Z,43.90
2019-02-22T21:40:17.563Z,43.90
2019-02-22T21:42:37.924Z,43.90
2019-02-22T21:44:58.300Z,43.90
2019-02-22T21:47:20.046Z,50.30
2019-02-22T21:49:40.430Z,46.10
2019-02-22T21:52:00.791Z,44.20
2019-02-22T21:54:21.143Z,43.30
2019-02-22T21:56:41.466Z,43.00
2019-02-22T21:59:01.821Z,42.80
2019-02-22T22:01:22.271Z,42.70
2019-02-22T22:03:42.650Z,43.30
2019-02-22T22:06:02.923Z,41.50
2019-02-22T22:08:23.358Z,42.00
2019-02-22T22:10:43.904Z,42.90
2019-02-22T22:13:04.368Z,42.60
2019-02-22T22:15:24.871Z,42.60
2019-02-22T22:17:45.138Z,43.20
2019-02-22T22:20:06.580Z,43.60
2019-02-22T22:22:26.908Z,43.10
2019-02-22T22:24:47.314Z,41.80
2019-02-22T22:27:07.599Z,42.70
2019-02-22T22:29:27.843Z,42.20
2019-02-22T22:31:48.191Z,42.40
2019-02-22T22:34:09.396Z,41.50
2019-02-22T22:36:29.626Z,42.50
2019-02-22T22:38:49.898Z,41.60
2019-02-22T22:41:10.196Z,42.00
2019-02-22T22:43:30.512Z,41.90
2019-02-22T22:45:50.956Z,42.90
2019-02-22T22:48:11.226Z,43.20
2019-02-22T22:50:31.643Z,42.60
2019-02-22T22:52:52.065Z,42.70
2019-02-22T22:55:12.438Z,43.00
2019-02-22T22:57:32.775Z,42.90
2019-02-22T22:59:53.091Z,43.50
2019-02-22T23:02:13.482Z,42.90
2019-02-22T23:04:33.850Z,43.70
2019-02-22T23:06:54.147Z,41.40
2019-02-22T23:09:18.549Z,40.80
2019-02-22T23:11:38.864Z,40.70
2019-02-22T23:13:59.219Z,40.10
2019-02-22T23:16:19.633Z,40.10
2019-02-22T23:18:40.010Z,40.30
2019-02-22T23:21:00.365Z,40.70
2019-02-22T23:23:20.633Z,41.20
2019-02-22T23:25:40.989Z,41.60
2019-02-22T23:28:01.476Z,42.40
2019-02-22T23:30:21.767Z,42.60
2019-02-22T23:32:42.203Z,42.10
2019-02-22T23:35:02.698Z,42.00
2019-02-22T23:37:23.064Z,42.40
2019-02-22T23:39:43.330Z,42.70
2019-02-22T23:42:05.235Z,42.40
2019-02-22T23:44:25.524Z,42.00
2019-02-22T23:46:45.821Z,41.60
2019-02-22T23:49:13.195Z,41.30
2019-02-22T23:51:28.188Z,40.50
2019-02-22T23:53:48.679Z,40.00
2019-02-22T23:56:08.954Z,40.00
2019-02-22T23:58:29.200Z,39.50
